sensor_id;sensor_type;location;lat;lon;timestamp;P1;durP1;ratioP1;P2;durP2;ratioP2
44426;SDS011;30133;47.866;-4.222;2023-05-19T00:00:17;7.18;;;3.10;;
44426;SDS011;30133;47.866;-4.222;2023-05-19T00:02:44;5.50;;;3.05;;
44426;SDS011;30133;47.866;-4.222;2023-05-19T00:05:11;5.05;;;3.33;;
44426;SDS011;30133;47.866;-4.222;2023-05-19T00:07:39;4.18;;;3.05;;
44426;SDS011;30133;47.866;-4.222;2023-05-19T00:10:06;5.30;;;3.20;;
44426;SDS011;30133;47.866;-4.222;2023-05-19T00:12:33;4.90;;;3.10;;
44426;SDS011;30133;47.866;-4.222;2023-05-19T00:15:01;4.35;;;3.13;;
44426;SDS011;30133;47.866;-4.222;2023-05-19T00:17:28;6.65;;;3.63;;
44426;SDS011;30133;47.866;-4.222;2023-05-19T00:19:55;4.47;;;2.75;;
44426;SDS011;30133;47.866;-4.222;2023-05-19T00:22:21;4.93;;;3.40;;
44426;SDS011;30133;47.866;-4.222;2023-05-19T00:24:48;5.05;;;2.92;;
44426;SDS011;30133;47.866;-4.222;2023-05-19T00:27:14;5.32;;;3.42;;
44426;SDS011;30133;47.866;-4.222;2023-05-19T00:29:41;5.22;;;3.42;;
44426;SDS011;30133;47.866;-4.222;2023-05-19T00:32:07;6.05;;;3.20;;
44426;SDS011;30133;47.866;-4.222;2023-05-19T00:34:34;4.28;;;2.95;;
44426;SDS011;30133;47.866;-4.222;2023-05-19T00:37:00;5.32;;;3.35;;
44426;SDS011;30133;47.866;-4.222;2023-05-19T00:39:27;4.65;;;2.92;;
44426;SDS011;30133;47.866;-4.222;2023-05-19T00:41:53;4.70;;;3.03;;
44426;SDS011;30133;47.866;-4.222;2023-05-19T00:44:20;6.45;;;3.35;;
44426;SDS011;30133;47.866;-4.222;2023-05-19T00:46:46;4.72;;;3.03;;
44426;SDS011;30133;47.866;-4.222;2023-05-19T00:49:13;5.18;;;2.75;;
44426;SDS011;30133;47.866;-4.222;2023-05-19T00:51:39;4.13;;;3.20;;
44426;SDS011;30133;47.866;-4.222;2023-05-19T00:54:06;4.70;;;3.30;;
44426;SDS011;30133;47.866;-4.222;2023-05-19T00:56:32;4.03;;;3.27;;
44426;SDS011;30133;47.866;-4.222;2023-05-19T00:58:59;5.27;;;3.10;;
44426;SDS011;30133;47.866;-4.222;2023-05-19T01:01:25;4.82;;;3.22;;
44426;SDS011;30133;47.866;-4.222;2023-05-19T01:03:52;5.35;;;3.35;;
44426;SDS011;30133;47.866;-4.222;2023-05-19T01:06:22;4.40;;;3.13;;
44426;SDS011;30133;47.866;-4.222;2023-05-19T01:08:49;5.07;;;2.83;;
44426;SDS011;30133;47.866;-4.222;2023-05-19T01:11:17;5.22;;;3.50;;
44426;SDS011;30133;47.866;-4.222;2023-05-19T01:13:43;6.00;;;3.42;;
44426;SDS011;30133;47.866;-4.222;2023-05-19T01:16:11;4.43;;;3.10;;
44426;SDS011;30133;47.866;-4.222;2023-05-19T01:19:04;4.53;;;3.30;;
44426;SDS011;30133;47.866;-4.222;2023-05-19T01:30:11;5.05;;;3.05;;
44426;SDS011;30133;47.866;-4.222;2023-05-19T01:32:47;7.10;;;3.05;;
44426;SDS011;30133;47.866;-4.222;2023-05-19T01:35:14;6.78;;;3.35;;
44426;SDS011;30133;47.866;-4.222;2023-05-19T01:37:41;4.90;;;3.10;;
44426;SDS011;30133;47.866;-4.222;2023-05-19T01:40:09;6.82;;;3.50;;
44426;SDS011;30133;47.866;-4.222;2023-05-19T01:42:37;3.90;;;3.00;;
44426;SDS011;30133;47.866;-4.222;2023-05-19T01:45:05;6.20;;;3.13;;
44426;SDS011;30133;47.866;-4.222;2023-05-19T01:47:35;5.38;;;3.20;;
44426;SDS011;30133;47.866;-4.222;2023-05-19T01:50:06;5.13;;;3.00;;
44426;SDS011;30133;47.866;-4.222;2023-05-19T01:52:33;4.38;;;3.00;;
44426;SDS011;30133;47.866;-4.222;2023-05-19T01:55:00;4.40;;;2.70;;
44426;SDS011;30133;47.866;-4.222;2023-05-19T01:57:29;5.35;;;3.00;;
44426;SDS011;30133;47.866;-4.222;2023-05-19T02:03:06;5.28;;;3.25;;
44426;SDS011;30133;47.866;-4.222;2023-05-19T02:10:48;5.30;;;2.95;;
44426;SDS011;30133;47.866;-4.222;2023-05-19T02:13:16;4.35;;;2.90;;
44426;SDS011;30133;47.866;-4.222;2023-05-19T02:15:44;5.07;;;3.13;;
44426;SDS011;30133;47.866;-4.222;2023-05-19T02:18:10;6.60;;;3.60;;
44426;SDS011;30133;47.866;-4.222;2023-05-19T02:20:38;6.15;;;3.42;;
44426;SDS011;30133;47.866;-4.222;2023-05-19T02:23:04;5.07;;;3.40;;
44426;SDS011;30133;47.866;-4.222;2023-05-19T02:25:31;5.28;;;3.05;;
44426;SDS011;30133;47.866;-4.222;2023-05-19T02:27:57;5.28;;;3.20;;
44426;SDS011;30133;47.866;-4.222;2023-05-19T02:30:24;4.82;;;3.03;;
44426;SDS011;30133;47.866;-4.222;2023-05-19T02:32:50;5.25;;;3.30;;
44426;SDS011;30133;47.866;-4.222;2023-05-19T02:35:18;5.23;;;3.17;;
44426;SDS011;30133;47.866;-4.222;2023-05-19T02:37:45;6.53;;;3.05;;
44426;SDS011;30133;47.866;-4.222;2023-05-19T02:40:11;4.65;;;2.70;;
44426;SDS011;30133;47.866;-4.222;2023-05-19T02:42:37;4.53;;;3.20;;
44426;SDS011;30133;47.866;-4.222;2023-05-19T02:45:04;4.07;;;2.83;;
44426;SDS011;30133;47.866;-4.222;2023-05-19T02:47:31;7.35;;;3.40;;
44426;SDS011;30133;47.866;-4.222;2023-05-19T02:49:57;4.72;;;2.90;;
44426;SDS011;30133;47.866;-4.222;2023-05-19T02:52:23;5.40;;;3.60;;
44426;SDS011;30133;47.866;-4.222;2023-05-19T02:54:50;5.32;;;3.45;;
44426;SDS011;30133;47.866;-4.222;2023-05-19T02:57:16;4.63;;;3.10;;
44426;SDS011;30133;47.866;-4.222;2023-05-19T02:59:42;4.72;;;3.10;;
44426;SDS011;30133;47.866;-4.222;2023-05-19T03:02:09;4.30;;;3.53;;
44426;SDS011;30133;47.866;-4.222;2023-05-19T03:04:35;5.60;;;3.50;;
44426;SDS011;30133;47.866;-4.222;2023-05-19T03:07:05;4.53;;;3.25;;
44426;SDS011;30133;47.866;-4.222;2023-05-19T03:09:34;4.80;;;2.88;;
44426;SDS011;30133;47.866;-4.222;2023-05-19T03:12:03;5.47;;;3.28;;
44426;SDS011;30133;47.866;-4.222;2023-05-19T03:14:32;4.82;;;2.95;;
44426;SDS011;30133;47.866;-4.222;2023-05-19T03:17:01;4.70;;;2.72;;
44426;SDS011;30133;47.866;-4.222;2023-05-19T03:19:28;4.55;;;2.88;;
44426;SDS011;30133;47.866;-4.222;2023-05-19T03:21:56;5.55;;;3.22;;
44426;SDS011;30133;47.866;-4.222;2023-05-19T03:24:22;5.63;;;3.33;;
44426;SDS011;30133;47.866;-4.222;2023-05-19T03:26:49;5.45;;;2.90;;
44426;SDS011;30133;47.866;-4.222;2023-05-19T03:29:15;6.28;;;3.15;;
44426;SDS011;30133;47.866;-4.222;2023-05-19T03:31:42;5.45;;;3.10;;
44426;SDS011;30133;47.866;-4.222;2023-05-19T03:34:08;3.83;;;2.70;;
44426;SDS011;30133;47.866;-4.222;2023-05-19T03:36:34;4.97;;;3.10;;
44426;SDS011;30133;47.866;-4.222;2023-05-19T03:39:07;6.10;;;2.90;;
44426;SDS011;30133;47.866;-4.222;2023-05-19T03:41:33;3.47;;;2.85;;
44426;SDS011;30133;47.866;-4.222;2023-05-19T03:44:00;4.35;;;2.78;;
44426;SDS011;30133;47.866;-4.222;2023-05-19T03:46:26;4.72;;;3.00;;
44426;SDS011;30133;47.866;-4.222;2023-05-19T03:48:52;3.80;;;3.08;;
44426;SDS011;30133;47.866;-4.222;2023-05-19T03:51:19;4.90;;;3.20;;
44426;SDS011;30133;47.866;-4.222;2023-05-19T03:53:45;5.10;;;2.88;;
44426;SDS011;30133;47.866;-4.222;2023-05-19T03:56:12;4.10;;;2.70;;
44426;SDS011;30133;47.866;-4.222;2023-05-19T03:58:41;4.50;;;3.20;;
44426;SDS011;30133;47.866;-4.222;2023-05-19T04:01:09;3.90;;;2.60;;
44426;SDS011;30133;47.866;-4.222;2023-05-19T04:03:35;4.53;;;3.17;;
44426;SDS011;30133;47.866;-4.222;2023-05-19T04:06:02;6.35;;;3.35;;
44426;SDS011;30133;47.866;-4.222;2023-05-19T04:08:28;4.03;;;2.80;;
44426;SDS011;30133;47.866;-4.222;2023-05-19T04:10:55;3.78;;;2.80;;
44426;SDS011;30133;47.866;-4.222;2023-05-19T04:13:21;4.90;;;3.28;;
44426;SDS011;30133;47.866;-4.222;2023-05-19T04:15:48;4.88;;;3.20;;
44426;SDS011;30133;47.866;-4.222;2023-05-19T04:18:14;6.00;;;2.87;;
44426;SDS011;30133;47.866;-4.222;2023-05-19T04:20:40;4.30;;;2.70;;
44426;SDS011;30133;47.866;-4.222;2023-05-19T04:23:07;5.18;;;2.83;;
44426;SDS011;30133;47.866;-4.222;2023-05-19T04:25:33;3.75;;;2.65;;
44426;SDS011;30133;47.866;-4.222;2023-05-19T04:28:00;4.33;;;3.00;;
44426;SDS011;30133;47.866;-4.222;2023-05-19T04:30:27;3.83;;;2.72;;
44426;SDS011;30133;47.866;-4.222;2023-05-19T04:32:53;4.20;;;2.80;;
44426;SDS011;30133;47.866;-4.222;2023-05-19T04:35:22;3.85;;;2.75;;
44426;SDS011;30133;47.866;-4.222;2023-05-19T04:37:48;4.82;;;3.03;;
44426;SDS011;30133;47.866;-4.222;2023-05-19T04:40:18;4.38;;;2.55;;
44426;SDS011;30133;47.866;-4.222;2023-05-19T04:42:47;4.65;;;2.83;;
44426;SDS011;30133;47.866;-4.222;2023-05-19T04:45:16;4.50;;;3.17;;
44426;SDS011;30133;47.866;-4.222;2023-05-19T04:47:43;4.25;;;2.53;;
44426;SDS011;30133;47.866;-4.222;2023-05-19T04:50:10;4.63;;;2.70;;
44426;SDS011;30133;47.866;-4.222;2023-05-19T04:52:38;5.30;;;2.83;;
44426;SDS011;30133;47.866;-4.222;2023-05-19T04:55:06;5.45;;;2.97;;
44426;SDS011;30133;47.866;-4.222;2023-05-19T04:57:35;5.80;;;2.75;;
44426;SDS011;30133;47.866;-4.222;2023-05-19T05:00:02;4.97;;;2.83;;
44426;SDS011;30133;47.866;-4.222;2023-05-19T05:02:32;4.32;;;2.80;;
44426;SDS011;30133;47.866;-4.222;2023-05-19T05:04:58;4.23;;;2.47;;
44426;SDS011;30133;47.866;-4.222;2023-05-19T05:07:25;4.57;;;2.70;;
44426;SDS011;30133;47.866;-4.222;2023-05-19T05:09:51;4.80;;;2.70;;
44426;SDS011;30133;47.866;-4.222;2023-05-19T05:12:18;3.72;;;2.75;;
44426;SDS011;30133;47.866;-4.222;2023-05-19T05:14:45;4.72;;;2.60;;
44426;SDS011;30133;47.866;-4.222;2023-05-19T05:17:12;3.78;;;2.85;;
44426;SDS011;30133;47.866;-4.222;2023-05-19T05:19:38;3.80;;;2.60;;
44426;SDS011;30133;47.866;-4.222;2023-05-19T05:22:05;3.35;;;2.40;;
44426;SDS011;30133;47.866;-4.222;2023-05-19T05:24:32;4.17;;;2.50;;
44426;SDS011;30133;47.866;-4.222;2023-05-19T05:26:58;4.45;;;2.78;;
44426;SDS011;30133;47.866;-4.222;2023-05-19T05:29:28;3.45;;;2.13;;
44426;SDS011;30133;47.866;-4.222;2023-05-19T05:31:55;3.28;;;2.45;;
44426;SDS011;30133;47.866;-4.222;2023-05-19T05:34:26;4.50;;;2.60;;
44426;SDS011;30133;47.866;-4.222;2023-05-19T05:36:53;5.65;;;2.60;;
44426;SDS011;30133;47.866;-4.222;2023-05-19T05:39:19;3.67;;;2.40;;
44426;SDS011;30133;47.866;-4.222;2023-05-19T05:41:46;3.83;;;2.58;;
44426;SDS011;30133;47.866;-4.222;2023-05-19T05:44:12;3.63;;;2.53;;
44426;SDS011;30133;47.866;-4.222;2023-05-19T05:46:39;4.10;;;2.30;;
44426;SDS011;30133;47.866;-4.222;2023-05-19T05:49:05;4.95;;;2.70;;
44426;SDS011;30133;47.866;-4.222;2023-05-19T05:51:32;4.35;;;2.60;;
44426;SDS011;30133;47.866;-4.222;2023-05-19T05:53:59;3.40;;;2.30;;
44426;SDS011;30133;47.866;-4.222;2023-05-19T05:56:25;4.32;;;2.47;;
44426;SDS011;30133;47.866;-4.222;2023-05-19T05:58:52;3.20;;;2.40;;
44426;SDS011;30133;47.866;-4.222;2023-05-19T06:01:18;3.92;;;2.42;;
44426;SDS011;30133;47.866;-4.222;2023-05-19T06:03:45;4.60;;;2.28;;
44426;SDS011;30133;47.866;-4.222;2023-05-19T06:06:12;5.03;;;2.63;;
44426;SDS011;30133;47.866;-4.222;2023-05-19T06:08:38;3.05;;;2.35;;
44426;SDS011;30133;47.866;-4.222;2023-05-19T06:11:04;4.28;;;2.67;;
44426;SDS011;30133;47.866;-4.222;2023-05-19T06:13:35;3.50;;;2.47;;
44426;SDS011;30133;47.866;-4.222;2023-05-19T06:16:02;3.83;;;2.35;;
44426;SDS011;30133;47.866;-4.222;2023-05-19T06:18:29;4.07;;;2.60;;
44426;SDS011;30133;47.866;-4.222;2023-05-19T06:20:56;3.63;;;2.50;;
44426;SDS011;30133;47.866;-4.222;2023-05-19T06:23:22;3.53;;;2.20;;
44426;SDS011;30133;47.866;-4.222;2023-05-19T06:25:50;3.30;;;2.53;;
44426;SDS011;30133;47.866;-4.222;2023-05-19T06:28:17;3.90;;;2.40;;
44426;SDS011;30133;47.866;-4.222;2023-05-19T06:30:43;4.37;;;2.33;;
44426;SDS011;30133;47.866;-4.222;2023-05-19T06:33:10;3.55;;;2.40;;
44426;SDS011;30133;47.866;-4.222;2023-05-19T06:35:36;4.60;;;2.25;;
44426;SDS011;30133;47.866;-4.222;2023-05-19T06:38:03;5.00;;;2.30;;
44426;SDS011;30133;47.866;-4.222;2023-05-19T06:40:29;3.70;;;2.20;;
44426;SDS011;30133;47.866;-4.222;2023-05-19T06:42:55;6.70;;;3.10;;
44426;SDS011;30133;47.866;-4.222;2023-05-19T06:45:22;4.60;;;2.60;;
44426;SDS011;30133;47.866;-4.222;2023-05-19T06:47:48;3.67;;;2.35;;
44426;SDS011;30133;47.866;-4.222;2023-05-19T06:50:15;5.38;;;2.33;;
44426;SDS011;30133;47.866;-4.222;2023-05-19T06:52:41;5.72;;;2.70;;
44426;SDS011;30133;47.866;-4.222;2023-05-19T06:55:08;3.30;;;2.00;;
44426;SDS011;30133;47.866;-4.222;2023-05-19T06:57:34;3.67;;;2.30;;
44426;SDS011;30133;47.866;-4.222;2023-05-19T07:00:01;4.53;;;2.35;;
44426;SDS011;30133;47.866;-4.222;2023-05-19T07:02:28;4.33;;;2.13;;
44426;SDS011;30133;47.866;-4.222;2023-05-19T07:04:54;4.40;;;2.28;;
44426;SDS011;30133;47.866;-4.222;2023-05-19T07:07:21;3.75;;;2.50;;
44426;SDS011;30133;47.866;-4.222;2023-05-19T07:09:48;5.60;;;2.35;;
44426;SDS011;30133;47.866;-4.222;2023-05-19T07:12:14;3.28;;;2.05;;
44426;SDS011;30133;47.866;-4.222;2023-05-19T07:14:40;4.50;;;2.50;;
44426;SDS011;30133;47.866;-4.222;2023-05-19T07:17:06;4.00;;;2.50;;
44426;SDS011;30133;47.866;-4.222;2023-05-19T07:19:33;3.13;;;2.00;;
44426;SDS011;30133;47.866;-4.222;2023-05-19T07:21:59;3.97;;;2.17;;
44426;SDS011;30133;47.866;-4.222;2023-05-19T07:24:26;3.67;;;2.45;;
44426;SDS011;30133;47.866;-4.222;2023-05-19T07:26:52;2.92;;;2.22;;
44426;SDS011;30133;47.866;-4.222;2023-05-19T07:29:18;4.05;;;2.17;;
44426;SDS011;30133;47.866;-4.222;2023-05-19T07:31:45;4.85;;;2.22;;
44426;SDS011;30133;47.866;-4.222;2023-05-19T07:34:11;4.22;;;2.00;;
44426;SDS011;30133;47.866;-4.222;2023-05-19T07:36:38;4.00;;;2.03;;
44426;SDS011;30133;47.866;-4.222;2023-05-19T07:39:05;4.60;;;2.30;;
44426;SDS011;30133;47.866;-4.222;2023-05-19T07:41:31;4.07;;;2.20;;
44426;SDS011;30133;47.866;-4.222;2023-05-19T07:44:05;3.90;;;2.00;;
44426;SDS011;30133;47.866;-4.222;2023-05-19T07:46:32;3.45;;;2.20;;
44426;SDS011;30133;47.866;-4.222;2023-05-19T07:48:58;3.05;;;1.80;;
44426;SDS011;30133;47.866;-4.222;2023-05-19T07:51:25;4.30;;;2.00;;
44426;SDS011;30133;47.866;-4.222;2023-05-19T07:53:51;3.88;;;1.90;;
44426;SDS011;30133;47.866;-4.222;2023-05-19T07:56:17;2.80;;;1.80;;
44426;SDS011;30133;47.866;-4.222;2023-05-19T07:58:44;3.40;;;2.03;;
44426;SDS011;30133;47.866;-4.222;2023-05-19T08:01:10;4.63;;;2.05;;
44426;SDS011;30133;47.866;-4.222;2023-05-19T08:03:36;3.83;;;2.33;;
44426;SDS011;30133;47.866;-4.222;2023-05-19T08:06:03;3.72;;;2.08;;
44426;SDS011;30133;47.866;-4.222;2023-05-19T08:08:29;4.40;;;2.30;;
44426;SDS011;30133;47.866;-4.222;2023-05-19T08:11:07;3.35;;;2.10;;
44426;SDS011;30133;47.866;-4.222;2023-05-19T08:13:33;2.53;;;2.10;;
44426;SDS011;30133;47.866;-4.222;2023-05-19T08:16:00;5.03;;;1.88;;
44426;SDS011;30133;47.866;-4.222;2023-05-19T08:18:26;3.08;;;1.73;;
44426;SDS011;30133;47.866;-4.222;2023-05-19T08:20:53;2.75;;;1.90;;
44426;SDS011;30133;47.866;-4.222;2023-05-19T08:23:20;3.85;;;1.90;;
44426;SDS011;30133;47.866;-4.222;2023-05-19T08:25:47;2.90;;;1.75;;
44426;SDS011;30133;47.866;-4.222;2023-05-19T08:28:13;3.53;;;2.10;;
44426;SDS011;30133;47.866;-4.222;2023-05-19T08:30:40;2.67;;;1.92;;
44426;SDS011;30133;47.866;-4.222;2023-05-19T08:33:06;2.80;;;1.83;;
44426;SDS011;30133;47.866;-4.222;2023-05-19T08:35:32;3.25;;;1.70;;
44426;SDS011;30133;47.866;-4.222;2023-05-19T08:37:59;3.20;;;2.13;;
44426;SDS011;30133;47.866;-4.222;2023-05-19T08:40:25;2.47;;;1.88;;
44426;SDS011;30133;47.866;-4.222;2023-05-19T08:42:55;2.73;;;1.60;;
44426;SDS011;30133;47.866;-4.222;2023-05-19T08:45:21;4.50;;;2.30;;
44426;SDS011;30133;47.866;-4.222;2023-05-19T08:47:48;4.20;;;2.07;;
44426;SDS011;30133;47.866;-4.222;2023-05-19T08:50:16;2.80;;;1.90;;
44426;SDS011;30133;47.866;-4.222;2023-05-19T08:52:58;2.67;;;1.83;;
44426;SDS011;30133;47.866;-4.222;2023-05-19T08:55:35;2.35;;;1.50;;
44426;SDS011;30133;47.866;-4.222;2023-05-19T08:58:09;2.97;;;1.67;;
44426;SDS011;30133;47.866;-4.222;2023-05-19T09:00:36;2.75;;;1.80;;
44426;SDS011;30133;47.866;-4.222;2023-05-19T09:03:03;3.08;;;1.90;;
44426;SDS011;30133;47.866;-4.222;2023-05-19T09:05:29;2.28;;;1.80;;
44426;SDS011;30133;47.866;-4.222;2023-05-19T09:07:57;4.57;;;2.00;;
44426;SDS011;30133;47.866;-4.222;2023-05-19T09:10:26;3.15;;;1.98;;
44426;SDS011;30133;47.866;-4.222;2023-05-19T09:12:53;3.22;;;1.63;;
44426;SDS011;30133;47.866;-4.222;2023-05-19T09:15:19;3.38;;;1.88;;
44426;SDS011;30133;47.866;-4.222;2023-05-19T09:17:46;4.00;;;2.10;;
44426;SDS011;30133;47.866;-4.222;2023-05-19T09:20:12;3.53;;;2.00;;
44426;SDS011;30133;47.866;-4.222;2023-05-19T09:22:41;2.40;;;1.60;;
44426;SDS011;30133;47.866;-4.222;2023-05-19T09:25:21;2.30;;;1.73;;
44426;SDS011;30133;47.866;-4.222;2023-05-19T09:27:48;2.70;;;1.88;;
44426;SDS011;30133;47.866;-4.222;2023-05-19T09:30:17;2.78;;;1.80;;
44426;SDS011;30133;47.866;-4.222;2023-05-19T09:32:44;4.50;;;1.70;;
44426;SDS011;30133;47.866;-4.222;2023-05-19T09:35:11;2.35;;;1.75;;
44426;SDS011;30133;47.866;-4.222;2023-05-19T09:37:38;3.13;;;2.00;;
44426;SDS011;30133;47.866;-4.222;2023-05-19T09:40:06;2.80;;;1.87;;
44426;SDS011;30133;47.866;-4.222;2023-05-19T09:42:35;2.65;;;1.95;;
44426;SDS011;30133;47.866;-4.222;2023-05-19T09:45:02;3.97;;;2.10;;
44426;SDS011;30133;47.866;-4.222;2023-05-19T09:47:33;3.35;;;2.10;;
44426;SDS011;30133;47.866;-4.222;2023-05-19T09:50:01;3.75;;;1.67;;
44426;SDS011;30133;47.866;-4.222;2023-05-19T09:52:29;2.78;;;1.60;;
44426;SDS011;30133;47.866;-4.222;2023-05-19T09:54:55;4.38;;;1.70;;
44426;SDS011;30133;47.866;-4.222;2023-05-19T09:57:25;2.65;;;1.80;;
44426;SDS011;30133;47.866;-4.222;2023-05-19T09:59:53;2.17;;;1.58;;
44426;SDS011;30133;47.866;-4.222;2023-05-19T10:02:21;1.83;;;1.50;;
44426;SDS011;30133;47.866;-4.222;2023-05-19T10:04:49;2.65;;;1.80;;
44426;SDS011;30133;47.866;-4.222;2023-05-19T10:07:18;3.00;;;2.03;;
44426;SDS011;30133;47.866;-4.222;2023-05-19T10:09:45;2.90;;;1.63;;
44426;SDS011;30133;47.866;-4.222;2023-05-19T10:12:12;4.07;;;1.60;;
44426;SDS011;30133;47.866;-4.222;2023-05-19T10:14:38;3.38;;;1.60;;
44426;SDS011;30133;47.866;-4.222;2023-05-19T10:17:05;2.92;;;1.67;;
44426;SDS011;30133;47.866;-4.222;2023-05-19T10:19:33;2.83;;;1.63;;
44426;SDS011;30133;47.866;-4.222;2023-05-19T10:22:01;2.65;;;1.58;;
44426;SDS011;30133;47.866;-4.222;2023-05-19T10:24:27;3.25;;;2.00;;
44426;SDS011;30133;47.866;-4.222;2023-05-19T10:27:02;2.97;;;1.90;;
44426;SDS011;30133;47.866;-4.222;2023-05-19T10:29:32;4.57;;;1.90;;
44426;SDS011;30133;47.866;-4.222;2023-05-19T10:32:12;2.38;;;1.70;;
44426;SDS011;30133;47.866;-4.222;2023-05-19T10:34:47;2.00;;;1.60;;
44426;SDS011;30133;47.866;-4.222;2023-05-19T10:40:08;3.40;;;1.67;;
44426;SDS011;30133;47.866;-4.222;2023-05-19T10:43:34;2.28;;;1.58;;
44426;SDS011;30133;47.866;-4.222;2023-05-19T10:45:43;2.63;;;1.60;;
44426;SDS011;30133;47.866;-4.222;2023-05-19T10:48:20;1.98;;;1.60;;
44426;SDS011;30133;47.866;-4.222;2023-05-19T10:50:48;3.85;;;1.80;;
44426;SDS011;30133;47.866;-4.222;2023-05-19T10:53:18;3.20;;;1.90;;
44426;SDS011;30133;47.866;-4.222;2023-05-19T10:55:54;3.10;;;1.67;;
44426;SDS011;30133;47.866;-4.222;2023-05-19T10:58:36;2.20;;;1.75;;
44426;SDS011;30133;47.866;-4.222;2023-05-19T11:01:13;2.45;;;1.80;;
44426;SDS011;30133;47.866;-4.222;2023-05-19T11:06:31;2.58;;;1.70;;
44426;SDS011;30133;47.866;-4.222;2023-05-19T11:09:13;2.95;;;1.95;;
44426;SDS011;30133;47.866;-4.222;2023-05-19T11:11:51;3.22;;;1.98;;
44426;SDS011;30133;47.866;-4.222;2023-05-19T11:14:22;3.55;;;1.48;;
44426;SDS011;30133;47.866;-4.222;2023-05-19T11:16:52;3.33;;;1.40;;
44426;SDS011;30133;47.866;-4.222;2023-05-19T11:19:28;2.78;;;1.65;;
44426;SDS011;30133;47.866;-4.222;2023-05-19T11:21:57;2.40;;;1.90;;
44426;SDS011;30133;47.866;-4.222;2023-05-19T11:24:36;2.08;;;1.65;;
44426;SDS011;30133;47.866;-4.222;2023-05-19T11:27:22;2.83;;;1.70;;
44426;SDS011;30133;47.866;-4.222;2023-05-19T11:29:56;2.70;;;1.80;;
44426;SDS011;30133;47.866;-4.222;2023-05-19T11:32:29;2.88;;;2.00;;
44426;SDS011;30133;47.866;-4.222;2023-05-19T11:35:00;2.77;;;1.73;;
44426;SDS011;30133;47.866;-4.222;2023-05-19T11:37:26;3.70;;;1.88;;
44426;SDS011;30133;47.866;-4.222;2023-05-19T11:39:55;2.72;;;1.83;;
44426;SDS011;30133;47.866;-4.222;2023-05-19T11:42:21;2.07;;;1.80;;
44426;SDS011;30133;47.866;-4.222;2023-05-19T11:44:47;2.60;;;1.63;;
44426;SDS011;30133;47.866;-4.222;2023-05-19T11:47:15;2.30;;;1.80;;
44426;SDS011;30133;47.866;-4.222;2023-05-19T11:49:51;2.35;;;1.60;;
44426;SDS011;30133;47.866;-4.222;2023-05-19T11:52:25;2.33;;;1.55;;
44426;SDS011;30133;47.866;-4.222;2023-05-19T11:54:51;3.13;;;1.63;;
44426;SDS011;30133;47.866;-4.222;2023-05-19T11:57:18;2.50;;;1.60;;
44426;SDS011;30133;47.866;-4.222;2023-05-19T11:59:45;2.88;;;1.70;;
44426;SDS011;30133;47.866;-4.222;2023-05-19T12:02:20;2.00;;;1.80;;
44426;SDS011;30133;47.866;-4.222;2023-05-19T12:04:51;2.43;;;1.63;;
44426;SDS011;30133;47.866;-4.222;2023-05-19T12:07:19;2.40;;;1.55;;
44426;SDS011;30133;47.866;-4.222;2023-05-19T12:09:48;3.30;;;1.65;;
44426;SDS011;30133;47.866;-4.222;2023-05-19T12:12:16;3.75;;;1.80;;
44426;SDS011;30133;47.866;-4.222;2023-05-19T12:14:48;2.65;;;1.90;;
44426;SDS011;30133;47.866;-4.222;2023-05-19T12:17:16;2.22;;;1.70;;
44426;SDS011;30133;47.866;-4.222;2023-05-19T12:19:44;2.40;;;1.90;;
44426;SDS011;30133;47.866;-4.222;2023-05-19T12:22:14;2.47;;;1.85;;
44426;SDS011;30133;47.866;-4.222;2023-05-19T12:24:41;2.70;;;1.80;;
44426;SDS011;30133;47.866;-4.222;2023-05-19T12:27:09;2.05;;;1.77;;
44426;SDS011;30133;47.866;-4.222;2023-05-19T12:29:38;3.45;;;1.70;;
44426;SDS011;30133;47.866;-4.222;2023-05-19T12:32:07;2.58;;;1.88;;
44426;SDS011;30133;47.866;-4.222;2023-05-19T12:34:37;1.73;;;1.50;;
44426;SDS011;30133;47.866;-4.222;2023-05-19T12:37:04;3.50;;;1.80;;
44426;SDS011;30133;47.866;-4.222;2023-05-19T12:39:31;2.83;;;1.98;;
44426;SDS011;30133;47.866;-4.222;2023-05-19T12:42:01;3.20;;;1.88;;
44426;SDS011;30133;47.866;-4.222;2023-05-19T12:44:28;2.70;;;2.00;;
44426;SDS011;30133;47.866;-4.222;2023-05-19T12:46:57;4.55;;;1.92;;
44426;SDS011;30133;47.866;-4.222;2023-05-19T12:49:24;2.22;;;1.70;;
44426;SDS011;30133;47.866;-4.222;2023-05-19T12:51:51;2.92;;;1.90;;
44426;SDS011;30133;47.866;-4.222;2023-05-19T12:54:26;2.72;;;1.80;;
44426;SDS011;30133;47.866;-4.222;2023-05-19T12:57:04;2.73;;;1.70;;
44426;SDS011;30133;47.866;-4.222;2023-05-19T12:59:30;3.65;;;1.83;;
44426;SDS011;30133;47.866;-4.222;2023-05-19T13:01:59;2.40;;;1.45;;
44426;SDS011;30133;47.866;-4.222;2023-05-19T13:04:26;2.78;;;1.85;;
44426;SDS011;30133;47.866;-4.222;2023-05-19T13:06:53;3.13;;;2.15;;
44426;SDS011;30133;47.866;-4.222;2023-05-19T13:09:19;2.47;;;1.67;;
44426;SDS011;30133;47.866;-4.222;2023-05-19T13:11:46;1.95;;;1.60;;
44426;SDS011;30133;47.866;-4.222;2023-05-19T13:14:19;2.70;;;1.83;;
44426;SDS011;30133;47.866;-4.222;2023-05-19T13:16:45;2.80;;;1.88;;
44426;SDS011;30133;47.866;-4.222;2023-05-19T13:19:13;1.90;;;1.67;;
44426;SDS011;30133;47.866;-4.222;2023-05-19T13:21:43;2.83;;;2.05;;
44426;SDS011;30133;47.866;-4.222;2023-05-19T13:24:14;3.33;;;1.93;;
44426;SDS011;30133;47.866;-4.222;2023-05-19T13:26:41;3.53;;;1.98;;
44426;SDS011;30133;47.866;-4.222;2023-05-19T13:29:07;3.08;;;1.77;;
44426;SDS011;30133;47.866;-4.222;2023-05-19T13:31:35;2.10;;;1.50;;
44426;SDS011;30133;47.866;-4.222;2023-05-19T13:34:02;4.10;;;2.20;;
44426;SDS011;30133;47.866;-4.222;2023-05-19T13:36:28;3.38;;;2.13;;
44426;SDS011;30133;47.866;-4.222;2023-05-19T13:38:57;1.98;;;1.67;;
44426;SDS011;30133;47.866;-4.222;2023-05-19T13:41:24;2.63;;;1.85;;
44426;SDS011;30133;47.866;-4.222;2023-05-19T13:43:53;2.65;;;1.80;;
44426;SDS011;30133;47.866;-4.222;2023-05-19T13:46:22;2.38;;;1.90;;
44426;SDS011;30133;47.866;-4.222;2023-05-19T13:48:48;2.88;;;1.88;;
44426;SDS011;30133;47.866;-4.222;2023-05-19T13:51:15;3.88;;;2.05;;
44426;SDS011;30133;47.866;-4.222;2023-05-19T13:53:41;4.03;;;2.03;;
44426;SDS011;30133;47.866;-4.222;2023-05-19T13:56:07;2.50;;;1.90;;
44426;SDS011;30133;47.866;-4.222;2023-05-19T13:58:34;2.20;;;1.80;;
44426;SDS011;30133;47.866;-4.222;2023-05-19T14:01:00;2.42;;;1.90;;
44426;SDS011;30133;47.866;-4.222;2023-05-19T14:03:26;3.65;;;1.88;;
44426;SDS011;30133;47.866;-4.222;2023-05-19T14:05:53;2.10;;;1.90;;
44426;SDS011;30133;47.866;-4.222;2023-05-19T14:08:20;2.70;;;1.58;;
44426;SDS011;30133;47.866;-4.222;2023-05-19T14:10:46;2.50;;;1.80;;
44426;SDS011;30133;47.866;-4.222;2023-05-19T14:13:14;2.58;;;1.90;;
44426;SDS011;30133;47.866;-4.222;2023-05-19T14:15:40;2.45;;;1.80;;
44426;SDS011;30133;47.866;-4.222;2023-05-19T14:18:06;3.25;;;2.05;;
44426;SDS011;30133;47.866;-4.222;2023-05-19T14:20:33;3.22;;;1.92;;
44426;SDS011;30133;47.866;-4.222;2023-05-19T14:22:59;2.38;;;1.60;;
44426;SDS011;30133;47.866;-4.222;2023-05-19T14:25:26;2.95;;;1.90;;
44426;SDS011;30133;47.866;-4.222;2023-05-19T14:27:52;2.95;;;1.73;;
44426;SDS011;30133;47.866;-4.222;2023-05-19T14:30:18;3.17;;;1.88;;
44426;SDS011;30133;47.866;-4.222;2023-05-19T14:32:45;3.88;;;1.90;;
44426;SDS011;30133;47.866;-4.222;2023-05-19T14:35:11;3.20;;;1.90;;
44426;SDS011;30133;47.866;-4.222;2023-05-19T14:37:38;2.70;;;1.80;;
44426;SDS011;30133;47.866;-4.222;2023-05-19T14:40:04;3.70;;;1.77;;
44426;SDS011;30133;47.866;-4.222;2023-05-19T14:42:31;2.40;;;1.70;;
44426;SDS011;30133;47.866;-4.222;2023-05-19T14:44:57;2.67;;;1.98;;
44426;SDS011;30133;47.866;-4.222;2023-05-19T14:47:23;2.80;;;1.98;;
44426;SDS011;30133;47.866;-4.222;2023-05-19T14:49:50;2.63;;;2.00;;
44426;SDS011;30133;47.866;-4.222;2023-05-19T14:52:16;3.42;;;2.00;;
44426;SDS011;30133;47.866;-4.222;2023-05-19T14:54:42;2.90;;;2.00;;
44426;SDS011;30133;47.866;-4.222;2023-05-19T14:57:09;2.85;;;1.85;;
44426;SDS011;30133;47.866;-4.222;2023-05-19T14:59:36;3.28;;;1.70;;